This is the latest recevied weather packets stored in our database for station/object N0THY. If no packets are shown the sender has not sent any weather packets the latest 10 day(s).
| Time | Temp. | Humidity | Pressure | Rain* | Wind** | Luminosity | Snow |
|---|---|---|---|---|---|---|---|
| 1777606721 | 7.22° C | 63% | 1018 hPa | 0 mm | - | - | - |
| 1777605818 | 7.78° C | 62% | 1017.9 hPa | 0 mm | - | - | - |
| 1777604915 | 7.78° C | 63% | 1017.7 hPa | 0 mm | - | - | - |
| 1777604012 | 8.33° C | 60% | 1017.5 hPa | 0 mm | - | - | - |
| 1777603109 | 8.89° C | 59% | 1017.4 hPa | 0 mm | - | - | - |
| 1777602206 | 9.44° C | 58% | 1017.1 hPa | 0 mm | - | - | - |
| 1777599498 | 11.67° C | 47% | 1016.3 hPa | 0 mm | - | - | - |
| 1777598595 | 12.22° C | 46% | 1016 hPa | 0 mm | - | - | - |
| 1777597692 | 12.78° C | 42% | 1015.8 hPa | 0 mm | - | - | - |
| 1777596789 | 13.89° C | 39% | 1015.6 hPa | 0 mm | - | - | - |
| 1777595886 | 14.44° C | 33% | 1015.6 hPa | 0 mm | - | - | - |
| 1777594983 | 15° C | 32% | 1015.7 hPa | 0 mm | - | - | - |
| 1777594080 | 14.44° C | 34% | 1015.6 hPa | 0 mm | - | - | - |
| 1777593177 | 14.44° C | 34% | 1015.5 hPa | 0 mm | - | - | - |
| 1777592274 | 15° C | 35% | 1015.4 hPa | 0 mm | - | - | - |
| 1777591371 | 15° C | 34% | 1015.3 hPa | 0 mm | - | - | - |
| 1777590468 | 16.67° C | 30% | 1015.1 hPa | 0 mm | - | - | - |
| 1777589565 | 16.11° C | 31% | 1014.9 hPa | 0 mm | - | - | - |
| 1777588662 | 16.11° C | 31% | 1014.9 hPa | 0 mm | - | - | - |
| 1777587759 | 18.33° C | 27% | 1014.6 hPa | 0 mm | - | - | - |
| 1777586856 | 17.78° C | 26% | 1014.6 hPa | 0 mm | - | - | - |
| 1777585953 | 16.11° C | 27% | 1014.6 hPa | 0 mm | - | - | - |
| 1777585051 | 16.11° C | 27% | 1014.8 hPa | 0 mm | - | - | - |
| 1777584148 | 16.11° C | 29% | 1014.9 hPa | 0 mm | - | - | - |
| 1777583245 | 15.56° C | 29% | 1014.9 hPa | 0 mm | - | - | - |
* Rain since midnight (hover to see other rain measurements)
** Current wind speed in m/s (hover to see current wind gust speed)